CheckWX is a tool to help pilots better visualize weather data.  It is not intended as a substitute for an official pre-flight weather briefing.

20:12:22 UTC

EDJA METAR
Memmingen Allgau Airport
Memmingen, Germany
Current

22 mins ago

EDJA 201950Z 06003KT 030V090 9000 OVC009 03/01 Q1012
Observed
Nov-20 @ 19:50 UTC
Wind
  • 060° at 3 KTS
Visibility
9,000 meters
Flight Rules
IFR
Cloud Levels
  • Overcast at 900' AGL
Temperature
C / 37°F
Dewpoint
C / 34°F
Humidity
87%
Altimeter
29.88" Hg
Pressure
1011.92 hPa
Previous

52 mins ago

EDJA 201920Z 08003KT 060V120 9999 OVC009 03/01 Q1012
Observed
Nov-20 @ 19:20 UTC
Wind
  • 080° at 3 KTS
Visibility
10,000+ meters
Flight Rules
IFR
Cloud Levels
  • Overcast at 900' AGL
Temperature
C / 37°F
Dewpoint
C / 34°F
Humidity
87%
Altimeter
29.88" Hg
Pressure
1011.92 hPa
Previous

1 hour ago

EDJA 201850Z 07003KT 040V100 9999 OVC009 03/01 Q1012
Observed
Nov-20 @ 18:50 UTC
Wind
  • 070° at 3 KTS
Visibility
10,000+ meters
Flight Rules
IFR
Cloud Levels
  • Overcast at 900' AGL
Temperature
C / 37°F
Dewpoint
C / 34°F
Humidity
87%
Altimeter
29.88" Hg
Pressure
1011.92 hPa